Time;durP1;ratioP1;P1;durP2;ratioP2;P2;SDS_P1;SDS_P2;PMS_P1;PMS_P2;Temp;Humidity;BMP_temperature;BMP_pressure;BME280_temperature;BME280_humidity;BME280_pressure;Samples;Min_cycle;Max_cycle;Signal;HPM_P1;HPM_P2
2023/09/12 00:01:05;;;;;;;23.93;18.37;;;;;;;;;;5035556;28;20706;-69
2023/09/12 00:03:31;;;;;;;22.33;17.63;;;;;;;;;;5036691;28;20203;-69
2023/09/12 00:05:58;;;;;;;23.53;17.30;;;;;;;;;;5036023;28;20200;-69
2023/09/12 00:08:24;;;;;;;20.10;17.40;;;;;;;;;;5036556;28;20248;-69
2023/09/12 00:11:10;;;;;;;21.03;16.83;;;;;;;;;;5036192;28;20269;-69
2023/09/12 00:13:37;;;;;;;21.03;16.83;;;;;;;;;;5036100;28;20541;-69
2023/09/12 00:16:05;;;;;;;20.00;15.77;;;;;;;;;;5035972;28;20225;-69
2023/09/12 00:18:30;;;;;;;20.10;15.97;;;;;;;;;;5036478;28;20276;-69
2023/09/12 00:20:59;;;;;;;24.53;19.00;;;;;;;;;;5035913;28;20199;-69
2023/09/12 00:23:25;;;;;;;24.47;18.53;;;;;;;;;;5018375;28;20179;-69
2023/09/12 00:25:54;;;;;;;39.97;21.73;;;;;;;;;;5018325;28;20573;-70
2023/09/12 00:28:20;;;;;;;38.27;22.43;;;;;;;;;;5035889;28;20552;-70
2023/09/12 00:30:46;;;;;;;42.57;24.23;;;;;;;;;;5018139;28;20691;-70
2023/09/12 00:33:12;;;;;;;32.00;24.33;;;;;;;;;;5036065;28;20637;-69
2023/09/12 00:35:38;;;;;;;26.13;21.57;;;;;;;;;;5017811;28;20203;-69
2023/09/12 00:38:06;;;;;;;26.30;20.77;;;;;;;;;;5035854;28;20671;-69
2023/09/12 00:40:32;;;;;;;33.40;23.80;;;;;;;;;;5035848;28;20209;-69
2023/09/12 00:42:59;;;;;;;32.33;23.33;;;;;;;;;;5037262;28;20175;-69
2023/09/12 00:45:25;;;;;;;35.23;24.67;;;;;;;;;;5037632;28;20711;-69
2023/09/12 00:47:52;;;;;;;46.80;32.38;;;;;;;;;;5018722;28;20884;-70
2023/09/12 00:50:19;;;;;;;36.87;27.93;;;;;;;;;;5036411;28;20671;-69
2023/09/12 00:52:45;;;;;;;39.77;27.93;;;;;;;;;;5036625;28;20306;-70
2023/09/12 00:55:11;;;;;;;44.43;29.93;;;;;;;;;;5036441;28;20206;-70
2023/09/12 00:57:37;;;;;;;44.27;31.53;;;;;;;;;;5018323;28;20183;-70
2023/09/12 01:00:11;;;;;;;46.80;33.30;;;;;;;;;;5035936;28;20207;-70
2023/09/12 01:02:37;;;;;;;49.57;32.47;;;;;;;;;;5035643;28;20162;-70
2023/09/12 01:05:04;;;;;;;39.90;29.50;;;;;;;;;;5035529;28;20203;-69
2023/09/12 01:07:30;;;;;;;39.87;27.93;;;;;;;;;;5036009;28;20181;-69
2023/09/12 01:09:56;;;;;;;45.07;31.67;;;;;;;;;;5035734;28;20622;-70
2023/09/12 01:12:22;;;;;;;42.30;31.13;;;;;;;;;;5034568;28;20175;-70
2023/09/12 01:14:49;;;;;;;38.83;29.53;;;;;;;;;;5017611;28;20297;-70
2023/09/12 01:17:15;;;;;;;36.47;26.40;;;;;;;;;;5035257;28;20238;-70
2023/09/12 01:19:41;;;;;;;35.33;28.00;;;;;;;;;;5036062;28;20207;-70
2023/09/12 01:22:13;;;;;;;33.80;26.10;;;;;;;;;;5035286;28;20284;-70
2023/09/12 01:24:55;;;;;;;33.07;26.00;;;;;;;;;;5035465;28;20191;-70
2023/09/12 01:27:25;;;;;;;36.83;25.60;;;;;;;;;;5018121;28;20213;-70
2023/09/12 01:29:54;;;;;;;36.17;26.63;;;;;;;;;;5035266;28;20183;-70
2023/09/12 01:32:20;;;;;;;32.07;25.63;;;;;;;;;;5017652;28;20191;-70
2023/09/12 01:34:47;;;;;;;28.03;23.23;;;;;;;;;;5017319;28;20206;-70
2023/09/12 01:37:13;;;;;;;30.43;24.53;;;;;;;;;;5017707;28;20241;-70
2023/09/12 01:39:39;;;;;;;30.50;23.83;;;;;;;;;;5035040;28;20203;-70
2023/09/12 01:42:05;;;;;;;31.17;23.67;;;;;;;;;;5034622;28;20179;-70
2023/09/12 01:44:31;;;;;;;29.07;23.07;;;;;;;;;;5034815;28;20195;-70
2023/09/12 01:47:01;;;;;;;32.50;23.03;;;;;;;;;;5035371;28;20540;-70
2023/09/12 01:49:28;;;;;;;31.63;22.33;;;;;;;;;;5017226;28;20265;-70
2023/09/12 01:51:54;;;;;;;34.27;24.40;;;;;;;;;;5035080;28;20183;-70
2023/09/12 01:54:20;;;;;;;32.90;24.80;;;;;;;;;;5034725;28;20575;-69
2023/09/12 01:56:46;;;;;;;31.33;24.53;;;;;;;;;;5035325;28;20262;-70
2023/09/12 01:59:12;;;;;;;36.50;25.03;;;;;;;;;;5034654;28;20182;-70
2023/09/12 02:01:38;;;;;;;31.00;23.17;;;;;;;;;;5034585;28;20207;-70
2023/09/12 02:04:08;;;;;;;27.20;21.67;;;;;;;;;;5034848;28;20184;-70
2023/09/12 02:06:34;;;;;;;33.73;23.60;;;;;;;;;;5016397;28;20186;-70
2023/09/12 02:09:00;;;;;;;31.47;24.13;;;;;;;;;;5016599;28;20190;-70
2023/09/12 02:11:29;;;;;;;32.17;25.20;;;;;;;;;;5034758;28;20549;-70
2023/09/12 02:13:55;;;;;;;31.90;26.13;;;;;;;;;;5034631;28;20229;-70
2023/09/12 02:16:21;;;;;;;34.10;26.70;;;;;;;;;;5016244;28;20210;-70
2023/09/12 02:18:48;;;;;;;34.07;25.47;;;;;;;;;;5034490;28;20179;-70
2023/09/12 02:21:15;;;;;;;35.57;25.73;;;;;;;;;;5033966;28;20225;-69
2023/09/12 02:23:41;;;;;;;36.33;26.00;;;;;;;;;;5033966;28;20168;-70
2023/09/12 02:26:07;;;;;;;31.03;26.87;;;;;;;;;;5033898;28;20260;-70
2023/09/12 02:28:33;;;;;;;30.77;25.77;;;;;;;;;;5016599;28;20182;-70
2023/09/12 02:30:59;;;;;;;34.73;25.47;;;;;;;;;;5034021;28;20206;-69
2023/09/12 02:33:25;;;;;;;31.30;25.73;;;;;;;;;;5033819;28;20241;-69
2023/09/12 02:35:51;;;;;;;38.50;26.00;;;;;;;;;;5033861;28;20286;-69
2023/09/12 02:38:18;;;;;;;31.53;27.17;;;;;;;;;;5034220;28;20210;-70
2023/09/12 02:40:44;;;;;;;33.30;25.80;;;;;;;;;;5033808;28;20211;-69
2023/09/12 02:43:10;;;;;;;34.43;26.93;;;;;;;;;;5033912;28;20175;-69
2023/09/12 02:45:36;;;;;;;42.73;28.33;;;;;;;;;;5034227;28;20218;-70
2023/09/12 02:48:02;;;;;;;40.50;29.63;;;;;;;;;;5034395;28;20171;-70
2023/09/12 02:50:28;;;;;;;37.40;27.43;;;;;;;;;;5015942;28;20183;-70
2023/09/12 02:52:54;;;;;;;39.07;27.47;;;;;;;;;;5034183;28;20183;-70
2023/09/12 02:55:20;;;;;;;34.13;26.80;;;;;;;;;;5033734;28;20699;-70
2023/09/12 02:57:46;;;;;;;33.40;26.93;;;;;;;;;;5033678;28;20185;-70
2023/09/12 03:00:13;;;;;;;38.07;28.50;;;;;;;;;;5033367;28;20285;-70
2023/09/12 03:02:39;;;;;;;38.00;28.70;;;;;;;;;;5015581;28;20175;-70
2023/09/12 03:05:05;;;;;;;44.37;30.20;;;;;;;;;;5033727;28;20354;-70
2023/09/12 03:07:31;;;;;;;42.67;29.87;;;;;;;;;;5035056;28;20171;-70
2023/09/12 03:09:57;;;;;;;46.63;30.53;;;;;;;;;;5017100;28;20190;-70
2023/09/12 03:12:23;;;;;;;42.87;31.20;;;;;;;;;;5034611;28;20550;-70
2023/09/12 03:14:49;;;;;;;46.67;31.57;;;;;;;;;;5016424;28;20213;-70
2023/09/12 03:17:15;;;;;;;42.97;30.57;;;;;;;;;;5033895;28;20589;-70
2023/09/12 03:19:41;;;;;;;42.23;31.70;;;;;;;;;;5033666;28;20259;-70
2023/09/12 03:22:07;;;;;;;46.47;32.43;;;;;;;;;;5033708;28;20178;-70
2023/09/12 03:24:33;;;;;;;47.77;33.63;;;;;;;;;;5033316;28;20202;-70
2023/09/12 03:26:59;;;;;;;50.57;34.83;;;;;;;;;;5015657;28;20723;-70
2023/09/12 03:29:25;;;;;;;51.30;34.47;;;;;;;;;;5033445;28;20183;-70
2023/09/12 03:31:51;;;;;;;55.00;36.20;;;;;;;;;;5015821;28;20175;-71
2023/09/12 03:34:17;;;;;;;63.87;48.10;;;;;;;;;;5033415;28;20179;-70
2023/09/12 03:36:43;;;;;;;52.70;38.70;;;;;;;;;;5037907;28;20280;-70
2023/09/12 03:39:09;;;;;;;44.97;33.90;;;;;;;;;;5037411;28;20179;-70
2023/09/12 03:41:35;;;;;;;53.30;35.30;;;;;;;;;;5019777;28;20241;-70
2023/09/12 03:44:02;;;;;;;46.80;34.10;;;;;;;;;;5037787;28;20175;-71
2023/09/12 03:46:28;;;;;;;51.60;36.17;;;;;;;;;;5037838;28;20216;-71
2023/09/12 03:48:54;;;;;;;56.27;38.30;;;;;;;;;;5037709;28;20266;-71
2023/09/12 03:51:19;;;;;;;59.10;41.17;;;;;;;;;;5038002;28;20179;-71
2023/09/12 03:53:47;;;;;;;62.73;42.90;;;;;;;;;;5037731;28;20258;-70
2023/09/12 03:56:14;;;;;;;61.63;42.13;;;;;;;;;;5037865;28;20288;-70
2023/09/12 03:58:40;;;;;;;74.40;44.47;;;;;;;;;;5020431;28;20186;-71
2023/09/12 04:01:06;;;;;;;66.90;44.17;;;;;;;;;;5037709;28;20202;-70
2023/09/12 04:03:32;;;;;;;68.40;43.97;;;;;;;;;;5037669;28;20202;-71
2023/09/12 04:05:58;;;;;;;71.93;43.90;;;;;;;;;;5037099;28;20630;-71
2023/09/12 04:08:24;;;;;;;69.27;41.37;;;;;;;;;;5037037;28;20675;-71
2023/09/12 04:10:50;;;;;;;72.40;44.70;;;;;;;;;;5037032;28;20601;-71
2023/09/12 04:13:16;;;;;;;73.10;45.37;;;;;;;;;;5037208;28;20468;-71
2023/09/12 04:15:42;;;;;;;64.83;44.93;;;;;;;;;;5036738;28;20253;-71
2023/09/12 04:18:08;;;;;;;65.60;45.50;;;;;;;;;;5036711;28;20289;-71
2023/09/12 04:20:34;;;;;;;72.73;44.73;;;;;;;;;;5036626;28;20210;-71
2023/09/12 04:23:03;;;;;;;75.20;45.70;;;;;;;;;;5018811;28;20530;-71
2023/09/12 04:25:29;;;;;;;81.87;47.67;;;;;;;;;;5036507;28;20240;-71
2023/09/12 04:27:55;;;;;;;75.63;47.60;;;;;;;;;;5018717;28;20648;-71
2023/09/12 04:30:21;;;;;;;77.27;48.43;;;;;;;;;;5036639;28;20175;-71
2023/09/12 04:32:47;;;;;;;75.63;48.00;;;;;;;;;;5018831;28;20270;-71
2023/09/12 04:35:13;;;;;;;74.10;47.03;;;;;;;;;;5036496;28;20294;-70
2023/09/12 04:37:39;;;;;;;72.00;46.63;;;;;;;;;;5018839;28;20209;-70
2023/09/12 04:40:07;;;;;;;71.10;45.90;;;;;;;;;;5036318;28;20198;-70
2023/09/12 04:42:33;;;;;;;74.23;47.70;;;;;;;;;;5035820;28;20225;-70
2023/09/12 04:44:59;;;;;;;77.77;49.00;;;;;;;;;;5018119;28;20207;-71
2023/09/12 04:47:25;;;;;;;78.40;49.13;;;;;;;;;;5018000;28;20197;-71
2023/09/12 04:49:52;;;;;;;79.63;49.97;;;;;;;;;;5018072;28;20191;-71
2023/09/12 04:52:18;;;;;;;81.20;48.27;;;;;;;;;;5018256;28;20193;-71
2023/09/12 04:54:44;;;;;;;78.10;48.87;;;;;;;;;;5035798;28;20203;-71
2023/09/12 04:57:10;;;;;;;77.37;49.03;;;;;;;;;;5033525;23;20230;-71
2023/09/12 04:59:36;;;;;;;75.60;47.13;;;;;;;;;;5035315;28;20172;-71
2023/09/12 05:02:03;;;;;;;79.93;51.57;;;;;;;;;;5017406;28;20179;-70
2023/09/12 05:04:29;;;;;;;80.03;49.03;;;;;;;;;;5035285;28;20168;-70
2023/09/12 05:06:55;;;;;;;73.90;48.67;;;;;;;;;;5017390;28;20206;-71
2023/09/12 05:09:20;;;;;;;73.67;47.93;;;;;;;;;;5035139;28;20186;-71
2023/09/12 05:11:46;;;;;;;79.53;48.03;;;;;;;;;;5035140;28;20651;-70
2023/09/12 05:14:12;;;;;;;78.90;46.80;;;;;;;;;;5035103;28;20215;-70
2023/09/12 05:16:38;;;;;;;87.23;49.13;;;;;;;;;;5035325;28;20183;-70
2023/09/12 05:19:05;;;;;;;87.97;50.77;;;;;;;;;;5035008;28;20217;-70
2023/09/12 05:21:31;;;;;;;77.60;48.20;;;;;;;;;;5034955;28;20660;-70
2023/09/12 05:23:57;;;;;;;74.67;47.67;;;;;;;;;;5034954;28;20181;-70
2023/09/12 05:26:23;;;;;;;80.47;49.60;;;;;;;;;;5017141;28;20569;-70
2023/09/12 05:28:49;;;;;;;86.10;51.87;;;;;;;;;;5017439;28;20199;-71
2023/09/12 05:31:15;;;;;;;88.13;51.40;;;;;;;;;;5035883;28;20198;-70
2023/09/12 05:33:41;;;;;;;86.17;50.43;;;;;;;;;;5035572;28;20677;-72
2023/09/12 05:36:07;;;;;;;84.00;51.43;;;;;;;;;;5017019;28;20644;-71
2023/09/12 05:38:33;;;;;;;86.63;51.10;;;;;;;;;;5034853;28;20248;-71
2023/09/12 05:40:59;;;;;;;78.43;50.37;;;;;;;;;;5034621;28;20195;-72
2023/09/12 05:43:25;;;;;;;84.80;51.23;;;;;;;;;;5034839;28;20174;-71
2023/09/12 05:45:51;;;;;;;80.83;49.30;;;;;;;;;;5034528;28;20179;-71
2023/09/12 05:48:16;;;;;;;88.07;51.73;;;;;;;;;;5034823;28;20227;-71
2023/09/12 05:50:42;;;;;;;84.50;51.87;;;;;;;;;;5034419;28;20186;-70
2023/09/12 05:53:09;;;;;;;82.50;52.77;;;;;;;;;;5034776;28;20175;-72
2023/09/12 05:55:35;;;;;;;84.10;51.57;;;;;;;;;;5034867;28;20622;-71
2023/09/12 05:58:00;;;;;;;80.27;49.20;;;;;;;;;;5033290;28;20215;-71
2023/09/12 06:00:26;;;;;;;69.00;45.40;;;;;;;;;;5034596;28;20716;-70
2023/09/12 06:02:53;;;;;;;74.77;44.70;;;;;;;;;;5034194;28;20203;-71
2023/09/12 06:05:18;;;;;;;67.63;42.53;;;;;;;;;;5016454;28;20176;-71
2023/09/12 06:07:46;;;;;;;57.67;39.70;;;;;;;;;;5016530;28;20219;-71
2023/09/12 06:10:12;;;;;;;60.50;39.80;;;;;;;;;;5016372;28;20193;-71
2023/09/12 06:12:38;;;;;;;66.70;42.67;;;;;;;;;;5016302;28;20269;-71
2023/09/12 06:15:04;;;;;;;76.73;42.73;;;;;;;;;;5034103;28;20186;-70
2023/09/12 06:17:31;;;;;;;76.23;44.07;;;;;;;;;;5034608;28;20229;-69
2023/09/12 06:19:56;;;;;;;72.93;41.67;;;;;;;;;;5016305;28;20282;-69
2023/09/12 06:22:22;;;;;;;74.50;42.97;;;;;;;;;;5034542;28;20652;-70
2023/09/12 06:24:49;;;;;;;72.93;43.30;;;;;;;;;;5033883;28;20550;-69
2023/09/12 06:27:18;;;;;;;81.73;45.60;;;;;;;;;;5016124;28;20290;-69
2023/09/12 06:29:45;;;;;;;85.30;47.33;;;;;;;;;;5034211;28;20202;-69
2023/09/12 06:32:11;;;;;;;86.60;47.30;;;;;;;;;;5034018;28;20779;-70
2023/09/12 06:34:37;;;;;;;92.77;49.83;;;;;;;;;;5033792;28;20265;-70
2023/09/12 06:37:04;;;;;;;95.70;49.53;;;;;;;;;;5033679;28;20206;-70
2023/09/12 06:39:30;;;;;;;92.90;49.77;;;;;;;;;;5015858;28;20179;-69
2023/09/12 06:41:56;;;;;;;98.03;51.93;;;;;;;;;;5033797;28;20179;-69
2023/09/12 06:44:22;;;;;;;91.60;50.90;;;;;;;;;;5033697;28;20695;-70
2023/09/12 06:46:48;;;;;;;97.27;53.70;;;;;;;;;;5033856;28;20183;-69
2023/09/12 06:49:14;;;;;;;100.50;53.87;;;;;;;;;;5033430;28;20194;-70
2023/09/12 06:51:39;;;;;;;95.57;52.90;;;;;;;;;;5015603;28;20206;-70
2023/09/12 06:54:05;;;;;;;99.07;52.47;;;;;;;;;;5015609;28;20191;-69
2023/09/12 06:56:32;;;;;;;96.80;53.43;;;;;;;;;;5016288;28;20271;-69
2023/09/12 06:58:59;;;;;;;94.60;51.07;;;;;;;;;;5033017;28;20195;-69
2023/09/12 07:01:25;;;;;;;80.43;48.90;;;;;;;;;;5015164;28;20592;-69
2023/09/12 07:03:55;;;;;;;106.87;53.67;;;;;;;;;;5033314;28;20232;-69
2023/09/12 07:06:21;;;;;;;86.63;50.73;;;;;;;;;;5015342;28;20305;-69
2023/09/12 07:08:47;;;;;;;89.53;48.53;;;;;;;;;;5033211;28;20233;-69
2023/09/12 07:11:13;;;;;;;97.47;49.90;;;;;;;;;;5033078;28;20179;-70
2023/09/12 07:13:39;;;;;;;90.60;49.60;;;;;;;;;;5015241;28;20210;-68
2023/09/12 07:16:05;;;;;;;101.63;51.07;;;;;;;;;;5033082;28;20184;-69
2023/09/12 07:18:34;;;;;;;100.97;51.60;;;;;;;;;;5033037;28;20256;-69
2023/09/12 07:21:01;;;;;;;97.27;51.13;;;;;;;;;;5032883;28;20199;-68
2023/09/12 07:23:27;;;;;;;97.17;51.27;;;;;;;;;;5033248;28;20219;-69
2023/09/12 07:25:55;;;;;;;72.47;43.03;;;;;;;;;;5015095;28;20270;-69
2023/09/12 07:28:21;;;;;;;55.13;34.23;;;;;;;;;;5015175;28;20199;-69
2023/09/12 07:30:47;;;;;;;55.87;34.47;;;;;;;;;;5033171;28;20225;-69
2023/09/12 07:33:13;;;;;;;46.90;29.10;;;;;;;;;;5015591;28;20527;-69
2023/09/12 07:35:39;;;;;;;44.67;28.57;;;;;;;;;;5015282;28;20232;-69
2023/09/12 07:38:05;;;;;;;50.87;29.17;;;;;;;;;;5032913;28;20195;-69
2023/09/12 07:40:31;;;;;;;47.30;26.23;;;;;;;;;;5032850;28;20727;-70
2023/09/12 07:42:57;;;;;;;44.93;27.93;;;;;;;;;;5032848;28;20641;-70
2023/09/12 07:45:23;;;;;;;46.73;28.37;;;;;;;;;;5032916;28;20171;-71
2023/09/12 07:47:50;;;;;;;41.93;28.00;;;;;;;;;;5032715;28;20199;-70
2023/09/12 07:50:15;;;;;;;42.83;27.67;;;;;;;;;;5015031;28;20273;-69
2023/09/12 07:52:41;;;;;;;37.47;25.30;;;;;;;;;;5032872;28;20218;-69
2023/09/12 07:55:08;;;;;;;41.77;25.67;;;;;;;;;;5033048;28;20186;-69
2023/09/12 07:57:34;;;;;;;46.77;29.33;;;;;;;;;;5015019;28;20692;-70
2023/09/12 08:00:00;;;;;;;42.43;27.73;;;;;;;;;;5014807;28;20211;-70
2023/09/12 08:02:26;;;;;;;39.27;27.27;;;;;;;;;;5032478;28;20190;-70
2023/09/12 08:04:55;;;;;;;41.77;27.47;;;;;;;;;;5032685;28;20183;-71
2023/09/12 08:07:22;;;;;;;36.67;24.57;;;;;;;;;;5014573;28;20199;-70
2023/09/12 08:09:52;;;;;;;34.63;24.93;;;;;;;;;;5014630;28;20179;-70
2023/09/12 08:12:18;;;;;;;36.53;25.93;;;;;;;;;;5032327;28;20175;-71
2023/09/12 08:14:45;;;;;;;37.63;25.93;;;;;;;;;;5032345;28;20168;-70
2023/09/12 08:17:11;;;;;;;39.37;28.33;;;;;;;;;;5014451;28;20272;-70
2023/09/12 08:19:37;;;;;;;46.47;32.33;;;;;;;;;;5014420;28;20186;-71
2023/09/12 08:22:03;;;;;;;53.03;32.93;;;;;;;;;;5017473;28;20553;-71
2023/09/12 08:24:29;;;;;;;50.70;32.20;;;;;;;;;;5018215;28;20225;-71
2023/09/12 08:26:54;;;;;;;51.23;33.23;;;;;;;;;;5035841;28;20230;-70
2023/09/12 08:29:21;;;;;;;49.07;34.03;;;;;;;;;;5018091;28;20179;-71
2023/09/12 08:31:47;;;;;;;47.23;34.47;;;;;;;;;;5036245;28;20179;-71
2023/09/12 08:34:13;;;;;;;48.73;34.53;;;;;;;;;;5017921;28;20186;-71
2023/09/12 08:36:39;;;;;;;49.57;34.97;;;;;;;;;;5035585;28;20179;-71
2023/09/12 08:39:08;;;;;;;51.27;34.47;;;;;;;;;;5035659;28;20212;-71
2023/09/12 08:41:34;;;;;;;50.47;38.17;;;;;;;;;;5035542;28;20736;-71
2023/09/12 08:44:01;;;;;;;62.13;46.00;;;;;;;;;;5035703;28;20592;-71
2023/09/12 08:46:27;;;;;;;64.53;47.90;;;;;;;;;;5017743;28;20183;-71
2023/09/12 08:48:55;;;;;;;53.80;42.40;;;;;;;;;;5035375;28;20197;-72
2023/09/12 08:51:23;;;;;;;50.13;40.70;;;;;;;;;;5017678;28;20187;-71
2023/09/12 08:53:49;;;;;;;42.37;37.53;;;;;;;;;;5036087;28;20177;-71
2023/09/12 08:56:15;;;;;;;43.97;36.30;;;;;;;;;;5035432;28;20179;-71
2023/09/12 08:58:41;;;;;;;41.20;36.10;;;;;;;;;;5017445;28;20218;-72
2023/09/12 09:01:09;;;;;;;43.57;37.20;;;;;;;;;;5017549;28;20630;-71
2023/09/12 09:03:35;;;;;;;45.77;39.90;;;;;;;;;;5035391;28;20274;-71
2023/09/12 09:06:02;;;;;;;52.40;40.07;;;;;;;;;;5035268;28;20558;-71
2023/09/12 09:08:28;;;;;;;46.73;35.73;;;;;;;;;;5035266;28;20199;-71
2023/09/12 09:10:55;;;;;;;45.20;37.43;;;;;;;;;;5035215;28;20214;-71
2023/09/12 09:13:21;;;;;;;40.87;32.87;;;;;;;;;;5035217;28;20179;-70
2023/09/12 09:15:47;;;;;;;44.03;35.60;;;;;;;;;;5035368;28;20187;-70
2023/09/12 09:18:13;;;;;;;38.83;33.27;;;;;;;;;;5035076;28;20203;-70
2023/09/12 09:20:40;;;;;;;27.73;24.30;;;;;;;;;;5035333;28;20236;-70
2023/09/12 09:23:09;;;;;;;28.00;23.57;;;;;;;;;;5017137;28;20710;-70
2023/09/12 09:25:39;;;;;;;26.57;22.57;;;;;;;;;;5035478;28;20199;-70
2023/09/12 09:28:05;;;;;;;27.87;23.40;;;;;;;;;;5017502;28;20649;-70
2023/09/12 09:30:41;;;;;;;33.13;28.33;;;;;;;;;;5034887;28;20179;-70
2023/09/12 09:33:08;;;;;;;28.90;25.23;;;;;;;;;;5033683;28;20253;-70
2023/09/12 09:35:34;;;;;;;24.93;22.23;;;;;;;;;;5017132;28;20194;-70
2023/09/12 09:38:00;;;;;;;24.17;21.67;;;;;;;;;;5034699;28;20707;-70
2023/09/12 09:40:26;;;;;;;14.77;12.93;;;;;;;;;;5034676;28;20207;-70
2023/09/12 09:42:56;;;;;;;12.93;11.00;;;;;;;;;;5035209;28;20171;-69
2023/09/12 09:45:22;;;;;;;12.37;11.07;;;;;;;;;;5034804;28;20250;-70
2023/09/12 09:47:50;;;;;;;13.20;10.63;;;;;;;;;;5034560;28;20246;-69
2023/09/12 09:50:16;;;;;;;12.47;10.87;;;;;;;;;;5034674;28;20183;-69
2023/09/12 09:52:44;;;;;;;12.07;10.43;;;;;;;;;;5034319;28;20186;-69
2023/09/12 09:55:20;;;;;;;14.70;9.93;;;;;;;;;;5034373;28;20260;-69
2023/09/12 09:57:48;;;;;;;12.00;8.57;;;;;;;;;;5034011;28;20214;-69
2023/09/12 10:00:14;;;;;;;9.77;8.77;;;;;;;;;;5016342;28;20212;-69
2023/09/12 10:02:41;;;;;;;8.73;7.83;;;;;;;;;;5034225;28;20198;-69
2023/09/12 10:05:10;;;;;;;10.10;7.67;;;;;;;;;;5016291;28;20536;-69
2023/09/12 10:07:38;;;;;;;10.47;8.10;;;;;;;;;;5016183;28;20203;-69
2023/09/12 10:10:04;;;;;;;10.17;8.60;;;;;;;;;;5016249;28;20189;-69
2023/09/12 10:12:43;;;;;;;9.10;8.20;;;;;;;;;;5033961;28;20183;-70
2023/09/12 10:15:11;;;;;;;7.33;6.73;;;;;;;;;;5034586;28;20195;-70
2023/09/12 10:17:38;;;;;;;7.77;6.83;;;;;;;;;;5034038;28;20279;-69
2023/09/12 10:20:04;;;;;;;7.77;7.00;;;;;;;;;;5033969;28;20280;-70
2023/09/12 10:22:32;;;;;;;5.43;4.93;;;;;;;;;;5034391;28;20190;-70
2023/09/12 10:24:59;;;;;;;6.90;4.70;;;;;;;;;;5016246;28;20241;-70
2023/09/12 10:27:26;;;;;;;8.07;7.27;;;;;;;;;;5034560;28;20195;-70
2023/09/12 10:29:53;;;;;;;6.60;5.80;;;;;;;;;;5016238;28;20707;-70
2023/09/12 10:32:22;;;;;;;6.10;5.60;;;;;;;;;;5034166;28;20186;-69
2023/09/12 10:34:49;;;;;;;7.00;5.90;;;;;;;;;;5033995;28;20317;-70
2023/09/12 10:37:19;;;;;;;5.93;5.33;;;;;;;;;;5016123;28;20199;-70
2023/09/12 10:39:46;;;;;;;8.80;6.77;;;;;;;;;;5033952;28;20254;-70
2023/09/12 10:42:13;;;;;;;7.67;6.10;;;;;;;;;;5034131;28;20179;-70
2023/09/12 10:44:39;;;;;;;7.47;6.50;;;;;;;;;;5033586;28;20649;-70
2023/09/12 10:47:06;;;;;;;7.93;7.00;;;;;;;;;;5015992;28;20203;-70
2023/09/12 10:49:32;;;;;;;8.27;7.30;;;;;;;;;;5033770;28;20185;-71
2023/09/12 10:51:58;;;;;;;9.23;7.23;;;;;;;;;;5033809;28;20183;-71
2023/09/12 10:54:44;;;;;;;7.23;6.13;;;;;;;;;;5033560;28;20190;-70
2023/09/12 10:57:13;;;;;;;9.23;6.70;;;;;;;;;;5015663;28;20261;-69
2023/09/12 10:59:59;;;;;;;8.33;6.87;;;;;;;;;;5033607;28;20246;-70
2023/09/12 11:02:30;;;;;;;10.83;7.33;;;;;;;;;;5033156;28;20540;-70
2023/09/12 11:04:57;;;;;;;9.77;7.43;;;;;;;;;;5033204;28;20633;-71
2023/09/12 11:07:41;;;;;;;11.80;7.90;;;;;;;;;;5033523;28;20617;-70
2023/09/12 11:10:18;;;;;;;8.27;7.33;;;;;;;;;;5033313;28;20186;-70
2023/09/12 11:12:44;;;;;;;11.47;8.13;;;;;;;;;;5033641;28;20163;-71
2023/09/12 11:15:10;;;;;;;8.97;7.90;;;;;;;;;;5057283;22;20231;-70
2023/09/12 11:17:49;;;;;;;11.97;8.40;;;;;;;;;;5033786;28;20230;-70
2023/09/12 11:20:15;;;;;;;13.37;8.17;;;;;;;;;;5033175;28;20213;-69
2023/09/12 11:22:43;;;;;;;15.13;7.57;;;;;;;;;;5015333;28;20175;-71
2023/09/12 11:25:27;;;;;;;8.17;7.03;;;;;;;;;;5015376;28;20202;-71
2023/09/12 11:27:53;;;;;;;7.37;6.67;;;;;;;;;;5032899;28;20704;-72
2023/09/12 11:30:20;;;;;;;7.83;6.00;;;;;;;;;;5033220;28;20198;-71
2023/09/12 11:32:47;;;;;;;8.60;6.03;;;;;;;;;;5033514;28;20217;-72
2023/09/12 11:35:14;;;;;;;7.77;6.73;;;;;;;;;;5033081;28;20316;-71
2023/09/12 11:37:40;;;;;;;7.43;6.27;;;;;;;;;;5033327;28;20222;-68
2023/09/12 11:40:26;;;;;;;8.07;6.13;;;;;;;;;;5015351;28;20262;-69
2023/09/12 11:42:52;;;;;;;6.70;6.00;;;;;;;;;;5019705;28;20213;-70
2023/09/12 11:45:20;;;;;;;6.97;5.90;;;;;;;;;;5015741;28;20241;-68
2023/09/12 11:47:46;;;;;;;6.00;5.40;;;;;;;;;;5033013;28;20256;-71
2023/09/12 11:50:27;;;;;;;7.87;6.63;;;;;;;;;;5033237;28;20193;-70
2023/09/12 11:53:03;;;;;;;8.83;7.30;;;;;;;;;;5015106;28;20194;-71
2023/09/12 11:55:51;;;;;;;8.10;6.67;;;;;;;;;;5016252;28;20578;-70
2023/09/12 11:58:17;;;;;;;10.03;8.80;;;;;;;;;;5037252;28;20285;-71
2023/09/12 12:00:47;;;;;;;10.27;8.47;;;;;;;;;;5019324;28;20207;-70
2023/09/12 12:03:14;;;;;;;11.53;9.00;;;;;;;;;;5037016;28;20641;-71
2023/09/12 12:05:40;;;;;;;10.13;8.97;;;;;;;;;;5036848;28;20226;-70
2023/09/12 12:08:11;;;;;;;10.53;8.23;;;;;;;;;;5036739;28;20180;-70
2023/09/12 12:10:39;;;;;;;11.80;9.70;;;;;;;;;;5036810;28;20202;-69
2023/09/12 12:13:05;;;;;;;10.57;9.47;;;;;;;;;;5036870;28;20217;-69
2023/09/12 12:15:32;;;;;;;15.00;13.27;;;;;;;;;;5019191;28;20229;-70
2023/09/12 12:17:58;;;;;;;15.27;12.47;;;;;;;;;;5036734;28;20649;-70
2023/09/12 12:20:24;;;;;;;13.87;11.90;;;;;;;;;;5038764;28;20217;-70
2023/09/12 12:22:53;;;;;;;16.13;13.73;;;;;;;;;;5040183;28;20199;-68
2023/09/12 12:25:19;;;;;;;17.07;12.33;;;;;;;;;;5039102;28;20198;-69
2023/09/12 12:27:45;;;;;;;16.77;12.13;;;;;;;;;;5022062;28;20179;-70
2023/09/12 12:30:12;;;;;;;14.27;12.87;;;;;;;;;;5018520;28;20186;-70
2023/09/12 12:32:41;;;;;;;14.43;12.97;;;;;;;;;;5036268;28;20179;-69
2023/09/12 12:35:08;;;;;;;14.17;12.67;;;;;;;;;;5036079;28;20681;-69
2023/09/12 12:37:34;;;;;;;14.63;13.13;;;;;;;;;;5036558;28;20182;-69
2023/09/12 12:40:01;;;;;;;16.83;14.07;;;;;;;;;;5036552;28;20209;-70
2023/09/12 12:42:33;;;;;;;15.67;14.17;;;;;;;;;;5036692;28;20176;-71
2023/09/12 12:44:59;;;;;;;16.60;14.27;;;;;;;;;;5036191;28;20191;-70
2023/09/12 12:47:25;;;;;;;18.83;13.10;;;;;;;;;;5036068;28;20180;-69
2023/09/12 12:49:52;;;;;;;15.53;14.07;;;;;;;;;;5036177;28;20221;-70
2023/09/12 12:52:22;;;;;;;15.00;13.50;;;;;;;;;;5017931;28;20613;-69
2023/09/12 12:54:49;;;;;;;14.53;13.23;;;;;;;;;;5035697;28;20648;-69
2023/09/12 12:57:19;;;;;;;14.83;13.37;;;;;;;;;;5036325;28;20176;-70
2023/09/12 12:59:48;;;;;;;16.43;14.73;;;;;;;;;;5017844;28;20176;-71
2023/09/12 13:02:15;;;;;;;14.20;12.80;;;;;;;;;;5035651;28;20652;-69
2023/09/12 13:04:41;;;;;;;14.80;12.50;;;;;;;;;;5035599;28;20179;-70
2023/09/12 13:07:07;;;;;;;14.43;13.03;;;;;;;;;;5035278;28;20175;-68
2023/09/12 13:09:33;;;;;;;13.00;11.80;;;;;;;;;;5035496;28;20526;-68
2023/09/12 13:11:59;;;;;;;13.80;12.33;;;;;;;;;;5017870;28;20199;-68
2023/09/12 13:14:30;;;;;;;16.93;15.33;;;;;;;;;;5017778;28;20175;-70
2023/09/12 13:16:57;;;;;;;17.33;15.67;;;;;;;;;;5035285;28;20218;-70
2023/09/12 13:19:23;;;;;;;20.10;18.17;;;;;;;;;;5035201;28;20179;-71
2023/09/12 13:21:49;;;;;;;14.90;13.50;;;;;;;;;;5017347;28;20587;-70
2023/09/12 13:24:15;;;;;;;24.00;21.53;;;;;;;;;;5017532;28;20213;-70
2023/09/12 13:26:41;;;;;;;20.17;18.37;;;;;;;;;;5035395;28;20198;-68
2023/09/12 13:29:07;;;;;;;19.70;17.40;;;;;;;;;;5035586;28;20309;-69
2023/09/12 13:31:33;;;;;;;12.83;11.60;;;;;;;;;;5035845;28;20187;-69
2023/09/12 13:33:58;;;;;;;20.80;17.13;;;;;;;;;;5035048;28;20179;-71
2023/09/12 13:36:24;;;;;;;21.13;16.83;;;;;;;;;;5035531;28;20293;-69
2023/09/12 13:38:51;;;;;;;20.93;16.27;;;;;;;;;;5017190;28;20187;-70
2023/09/12 13:41:17;;;;;;;17.97;15.97;;;;;;;;;;5034737;28;20289;-71
2023/09/12 13:43:46;;;;;;;17.70;15.17;;;;;;;;;;5034878;28;20255;-70
2023/09/12 13:46:13;;;;;;;16.90;15.10;;;;;;;;;;5034932;28;20191;-70
2023/09/12 13:48:39;;;;;;;15.80;14.07;;;;;;;;;;5017228;28;20214;-70
2023/09/12 13:51:05;;;;;;;14.53;13.00;;;;;;;;;;5034726;28;20179;-69
2023/09/12 13:53:31;;;;;;;16.00;14.17;;;;;;;;;;5017006;28;20183;-69
2023/09/12 13:55:58;;;;;;;16.27;14.63;;;;;;;;;;5034631;28;20195;-69
2023/09/12 13:58:24;;;;;;;18.03;16.13;;;;;;;;;;5016787;28;20187;-71
2023/09/12 14:00:51;;;;;;;15.90;13.40;;;;;;;;;;5034733;28;20659;-70
2023/09/12 14:03:17;;;;;;;15.93;13.83;;;;;;;;;;5034714;28;20623;-70
2023/09/12 14:05:43;;;;;;;14.03;11.73;;;;;;;;;;5016513;28;20293;-70
2023/09/12 14:08:09;;;;;;;15.90;12.10;;;;;;;;;;5016715;28;20241;-69
2023/09/12 14:10:35;;;;;;;12.80;10.67;;;;;;;;;;5034492;28;20175;-69
2023/09/12 14:13:01;;;;;;;12.80;11.50;;;;;;;;;;5034157;28;20194;-70
2023/09/12 14:15:27;;;;;;;12.03;10.80;;;;;;;;;;5016307;28;20261;-70
2023/09/12 14:17:53;;;;;;;10.47;8.67;;;;;;;;;;5033909;28;20184;-69
2023/09/12 14:20:19;;;;;;;14.87;10.37;;;;;;;;;;5034190;28;20668;-69